sensor_id;sensor_type;location;lat;lon;timestamp;P1;durP1;ratioP1;P2;durP2;ratioP2
22332;SDS011;11334;36.986;-121.936;2022-11-30T00:00:35;4.05;;;1.65;;
22332;SDS011;11334;36.986;-121.936;2022-11-30T00:03:02;9.55;;;1.73;;
22332;SDS011;11334;36.986;-121.936;2022-11-30T00:05:29;6.50;;;2.08;;
22332;SDS011;11334;36.986;-121.936;2022-11-30T00:07:55;3.25;;;1.70;;
22332;SDS011;11334;36.986;-121.936;2022-11-30T00:10:22;3.97;;;1.73;;
22332;SDS011;11334;36.986;-121.936;2022-11-30T00:12:48;4.25;;;1.85;;
22332;SDS011;11334;36.986;-121.936;2022-11-30T00:15:15;9.05;;;1.73;;
22332;SDS011;11334;36.986;-121.936;2022-11-30T00:17:42;5.75;;;1.80;;
22332;SDS011;11334;36.986;-121.936;2022-11-30T00:20:09;5.10;;;1.77;;
22332;SDS011;11334;36.986;-121.936;2022-11-30T00:22:36;9.27;;;1.90;;
22332;SDS011;11334;36.986;-121.936;2022-11-30T00:25:02;6.55;;;1.48;;
22332;SDS011;11334;36.986;-121.936;2022-11-30T00:27:29;4.55;;;1.70;;
22332;SDS011;11334;36.986;-121.936;2022-11-30T00:29:57;8.63;;;2.03;;
22332;SDS011;11334;36.986;-121.936;2022-11-30T00:32:26;5.60;;;2.17;;
22332;SDS011;11334;36.986;-121.936;2022-11-30T00:34:53;5.10;;;2.25;;
22332;SDS011;11334;36.986;-121.936;2022-11-30T00:37:20;7.13;;;2.42;;
22332;SDS011;11334;36.986;-121.936;2022-11-30T00:39:46;6.95;;;2.03;;
22332;SDS011;11334;36.986;-121.936;2022-11-30T00:42:12;6.63;;;2.20;;
22332;SDS011;11334;36.986;-121.936;2022-11-30T00:44:38;5.85;;;2.10;;
22332;SDS011;11334;36.986;-121.936;2022-11-30T00:47:04;7.53;;;2.30;;
22332;SDS011;11334;36.986;-121.936;2022-11-30T00:49:31;7.90;;;2.60;;
22332;SDS011;11334;36.986;-121.936;2022-11-30T00:51:58;5.32;;;2.30;;
22332;SDS011;11334;36.986;-121.936;2022-11-30T00:54:25;10.18;;;2.88;;
22332;SDS011;11334;36.986;-121.936;2022-11-30T00:56:51;6.00;;;2.00;;
22332;SDS011;11334;36.986;-121.936;2022-11-30T00:59:17;7.80;;;2.53;;
22332;SDS011;11334;36.986;-121.936;2022-11-30T01:01:43;6.20;;;2.70;;
22332;SDS011;11334;36.986;-121.936;2022-11-30T01:04:10;9.25;;;5.47;;
22332;SDS011;11334;36.986;-121.936;2022-11-30T01:06:36;5.80;;;3.53;;
22332;SDS011;11334;36.986;-121.936;2022-11-30T01:09:03;7.25;;;3.40;;
22332;SDS011;11334;36.986;-121.936;2022-11-30T01:11:29;9.20;;;5.10;;
22332;SDS011;11334;36.986;-121.936;2022-11-30T01:13:59;23.67;;;15.55;;
22332;SDS011;11334;36.986;-121.936;2022-11-30T01:16:30;27.85;;;18.77;;
22332;SDS011;11334;36.986;-121.936;2022-11-30T01:18:57;19.83;;;14.95;;
22332;SDS011;11334;36.986;-121.936;2022-11-30T01:21:25;12.05;;;8.48;;
22332;SDS011;11334;36.986;-121.936;2022-11-30T01:23:52;9.98;;;7.25;;
22332;SDS011;11334;36.986;-121.936;2022-11-30T01:26:19;7.63;;;5.05;;
22332;SDS011;11334;36.986;-121.936;2022-11-30T01:28:53;7.32;;;2.78;;
22332;SDS011;11334;36.986;-121.936;2022-11-30T01:31:20;5.72;;;2.63;;
22332;SDS011;11334;36.986;-121.936;2022-11-30T01:33:51;3.75;;;2.45;;
22332;SDS011;11334;36.986;-121.936;2022-11-30T01:36:20;7.95;;;2.65;;
22332;SDS011;11334;36.986;-121.936;2022-11-30T01:38:54;6.13;;;2.88;;
22332;SDS011;11334;36.986;-121.936;2022-11-30T01:41:23;4.03;;;1.80;;
22332;SDS011;11334;36.986;-121.936;2022-11-30T01:46:59;6.65;;;2.22;;
22332;SDS011;11334;36.986;-121.936;2022-11-30T01:49:29;5.25;;;2.28;;
22332;SDS011;11334;36.986;-121.936;2022-11-30T01:57:33;6.90;;;3.22;;
22332;SDS011;11334;36.986;-121.936;2022-11-30T02:00:06;4.65;;;2.67;;
22332;SDS011;11334;36.986;-121.936;2022-11-30T02:05:33;5.75;;;3.78;;
22332;SDS011;11334;36.986;-121.936;2022-11-30T02:08:02;6.00;;;4.15;;
22332;SDS011;11334;36.986;-121.936;2022-11-30T02:10:31;5.03;;;3.90;;
22332;SDS011;11334;36.986;-121.936;2022-11-30T02:15:39;5.50;;;4.03;;
22332;SDS011;11334;36.986;-121.936;2022-11-30T02:18:16;9.40;;;4.53;;
22332;SDS011;11334;36.986;-121.936;2022-11-30T02:26:23;6.53;;;4.03;;
22332;SDS011;11334;36.986;-121.936;2022-11-30T02:28:56;6.70;;;4.72;;
22332;SDS011;11334;36.986;-121.936;2022-11-30T02:34:13;6.70;;;5.85;;
22332;SDS011;11334;36.986;-121.936;2022-11-30T02:36:44;8.35;;;5.47;;
22332;SDS011;11334;36.986;-121.936;2022-11-30T02:39:11;6.53;;;4.97;;
22332;SDS011;11334;36.986;-121.936;2022-11-30T02:41:39;12.88;;;5.25;;
22332;SDS011;11334;36.986;-121.936;2022-11-30T02:44:05;9.23;;;6.97;;
22332;SDS011;11334;36.986;-121.936;2022-11-30T02:46:40;10.73;;;6.55;;
22332;SDS011;11334;36.986;-121.936;2022-11-30T02:49:29;8.40;;;6.00;;
22332;SDS011;11334;36.986;-121.936;2022-11-30T02:51:57;6.40;;;4.85;;
22332;SDS011;11334;36.986;-121.936;2022-11-30T02:54:25;10.57;;;5.05;;
22332;SDS011;11334;36.986;-121.936;2022-11-30T02:56:52;9.35;;;4.35;;
22332;SDS011;11334;36.986;-121.936;2022-11-30T02:59:18;7.13;;;3.95;;
22332;SDS011;11334;36.986;-121.936;2022-11-30T03:01:45;6.82;;;3.42;;
22332;SDS011;11334;36.986;-121.936;2022-11-30T03:04:11;8.27;;;4.05;;
22332;SDS011;11334;36.986;-121.936;2022-11-30T03:06:37;7.47;;;3.90;;
22332;SDS011;11334;36.986;-121.936;2022-11-30T03:09:04;4.43;;;3.35;;
22332;SDS011;11334;36.986;-121.936;2022-11-30T03:11:30;5.47;;;3.58;;
22332;SDS011;11334;36.986;-121.936;2022-11-30T03:13:56;6.40;;;4.53;;
22332;SDS011;11334;36.986;-121.936;2022-11-30T03:16:22;7.28;;;3.90;;
22332;SDS011;11334;36.986;-121.936;2022-11-30T03:18:48;6.43;;;4.32;;
22332;SDS011;11334;36.986;-121.936;2022-11-30T03:21:15;9.45;;;5.18;;
22332;SDS011;11334;36.986;-121.936;2022-11-30T03:23:41;8.90;;;5.70;;
22332;SDS011;11334;36.986;-121.936;2022-11-30T03:26:07;8.18;;;5.43;;
22332;SDS011;11334;36.986;-121.936;2022-11-30T03:28:34;7.32;;;4.95;;
22332;SDS011;11334;36.986;-121.936;2022-11-30T03:31:01;8.23;;;5.40;;
22332;SDS011;11334;36.986;-121.936;2022-11-30T03:33:28;9.30;;;5.38;;
22332;SDS011;11334;36.986;-121.936;2022-11-30T03:36:12;11.15;;;5.45;;
22332;SDS011;11334;36.986;-121.936;2022-11-30T03:38:38;8.23;;;5.43;;
22332;SDS011;11334;36.986;-121.936;2022-11-30T03:41:05;7.20;;;4.30;;
22332;SDS011;11334;36.986;-121.936;2022-11-30T03:43:35;5.28;;;4.47;;
22332;SDS011;11334;36.986;-121.936;2022-11-30T03:46:01;6.68;;;3.97;;
22332;SDS011;11334;36.986;-121.936;2022-11-30T03:48:28;10.25;;;6.25;;
22332;SDS011;11334;36.986;-121.936;2022-11-30T03:50:55;25.70;;;15.90;;
22332;SDS011;11334;36.986;-121.936;2022-11-30T03:53:22;26.27;;;14.20;;
22332;SDS011;11334;36.986;-121.936;2022-11-30T03:55:53;10.85;;;8.13;;
22332;SDS011;11334;36.986;-121.936;2022-11-30T03:58:21;9.27;;;6.43;;
22332;SDS011;11334;36.986;-121.936;2022-11-30T04:00:48;9.43;;;4.70;;
22332;SDS011;11334;36.986;-121.936;2022-11-30T04:03:15;11.82;;;6.28;;
22332;SDS011;11334;36.986;-121.936;2022-11-30T04:05:41;9.70;;;5.80;;
22332;SDS011;11334;36.986;-121.936;2022-11-30T04:08:07;6.88;;;4.60;;
22332;SDS011;11334;36.986;-121.936;2022-11-30T04:10:34;11.07;;;5.53;;
22332;SDS011;11334;36.986;-121.936;2022-11-30T04:13:00;7.10;;;4.45;;
22332;SDS011;11334;36.986;-121.936;2022-11-30T04:15:26;11.30;;;5.15;;
22332;SDS011;11334;36.986;-121.936;2022-11-30T04:17:52;6.15;;;4.57;;
22332;SDS011;11334;36.986;-121.936;2022-11-30T04:20:18;7.82;;;4.10;;
22332;SDS011;11334;36.986;-121.936;2022-11-30T04:22:44;8.80;;;4.80;;
22332;SDS011;11334;36.986;-121.936;2022-11-30T04:25:11;8.43;;;4.30;;
22332;SDS011;11334;36.986;-121.936;2022-11-30T04:27:37;7.32;;;4.53;;
22332;SDS011;11334;36.986;-121.936;2022-11-30T04:30:03;6.00;;;4.00;;
22332;SDS011;11334;36.986;-121.936;2022-11-30T04:32:30;7.25;;;4.20;;
22332;SDS011;11334;36.986;-121.936;2022-11-30T04:34:56;5.45;;;3.88;;
22332;SDS011;11334;36.986;-121.936;2022-11-30T04:37:22;4.47;;;4.03;;
22332;SDS011;11334;36.986;-121.936;2022-11-30T04:39:49;6.38;;;4.47;;
22332;SDS011;11334;36.986;-121.936;2022-11-30T04:42:15;6.40;;;3.80;;
22332;SDS011;11334;36.986;-121.936;2022-11-30T04:44:41;7.13;;;4.47;;
22332;SDS011;11334;36.986;-121.936;2022-11-30T04:47:07;6.53;;;3.80;;
22332;SDS011;11334;36.986;-121.936;2022-11-30T04:49:33;3.55;;;3.20;;
22332;SDS011;11334;36.986;-121.936;2022-11-30T04:51:59;7.07;;;3.55;;
22332;SDS011;11334;36.986;-121.936;2022-11-30T04:54:26;4.32;;;2.75;;
22332;SDS011;11334;36.986;-121.936;2022-11-30T04:56:52;5.57;;;3.15;;
22332;SDS011;11334;36.986;-121.936;2022-11-30T04:59:18;5.68;;;3.30;;
22332;SDS011;11334;36.986;-121.936;2022-11-30T05:01:44;5.40;;;3.60;;
22332;SDS011;11334;36.986;-121.936;2022-11-30T05:04:10;6.30;;;3.33;;
22332;SDS011;11334;36.986;-121.936;2022-11-30T05:06:37;9.00;;;3.80;;
22332;SDS011;11334;36.986;-121.936;2022-11-30T05:09:03;7.60;;;3.90;;
22332;SDS011;11334;36.986;-121.936;2022-11-30T05:11:29;6.93;;;3.40;;
22332;SDS011;11334;36.986;-121.936;2022-11-30T05:13:55;3.88;;;2.60;;
22332;SDS011;11334;36.986;-121.936;2022-11-30T05:16:22;5.60;;;3.35;;
22332;SDS011;11334;36.986;-121.936;2022-11-30T05:18:48;7.20;;;3.75;;
22332;SDS011;11334;36.986;-121.936;2022-11-30T05:21:14;6.25;;;2.95;;
22332;SDS011;11334;36.986;-121.936;2022-11-30T05:23:40;7.55;;;3.10;;
22332;SDS011;11334;36.986;-121.936;2022-11-30T05:26:07;4.72;;;2.88;;
22332;SDS011;11334;36.986;-121.936;2022-11-30T05:28:33;5.68;;;3.30;;
22332;SDS011;11334;36.986;-121.936;2022-11-30T05:31:01;6.95;;;3.92;;
22332;SDS011;11334;36.986;-121.936;2022-11-30T05:33:28;7.55;;;4.68;;
22332;SDS011;11334;36.986;-121.936;2022-11-30T05:35:55;10.20;;;5.53;;
22332;SDS011;11334;36.986;-121.936;2022-11-30T05:38:21;8.65;;;3.83;;
22332;SDS011;11334;36.986;-121.936;2022-11-30T05:40:47;7.80;;;3.63;;
22332;SDS011;11334;36.986;-121.936;2022-11-30T05:43:13;8.82;;;3.80;;
22332;SDS011;11334;36.986;-121.936;2022-11-30T05:45:40;6.45;;;3.63;;
22332;SDS011;11334;36.986;-121.936;2022-11-30T05:48:06;5.68;;;3.40;;
22332;SDS011;11334;36.986;-121.936;2022-11-30T05:50:32;4.82;;;3.40;;
22332;SDS011;11334;36.986;-121.936;2022-11-30T05:52:58;8.07;;;3.20;;
22332;SDS011;11334;36.986;-121.936;2022-11-30T05:55:26;5.10;;;3.65;;
22332;SDS011;11334;36.986;-121.936;2022-11-30T05:57:53;7.40;;;3.90;;
22332;SDS011;11334;36.986;-121.936;2022-11-30T06:00:20;5.15;;;3.40;;
22332;SDS011;11334;36.986;-121.936;2022-11-30T06:02:46;5.63;;;3.35;;
22332;SDS011;11334;36.986;-121.936;2022-11-30T06:05:12;5.43;;;3.65;;
22332;SDS011;11334;36.986;-121.936;2022-11-30T06:07:39;3.97;;;3.38;;
22332;SDS011;11334;36.986;-121.936;2022-11-30T06:10:06;5.55;;;3.25;;
22332;SDS011;11334;36.986;-121.936;2022-11-30T06:12:33;9.80;;;3.33;;
22332;SDS011;11334;36.986;-121.936;2022-11-30T06:14:59;4.65;;;3.40;;
22332;SDS011;11334;36.986;-121.936;2022-11-30T06:17:25;7.28;;;3.28;;
22332;SDS011;11334;36.986;-121.936;2022-11-30T06:19:52;5.65;;;3.08;;
22332;SDS011;11334;36.986;-121.936;2022-11-30T06:22:18;4.82;;;3.70;;
22332;SDS011;11334;36.986;-121.936;2022-11-30T06:24:44;4.95;;;2.92;;
22332;SDS011;11334;36.986;-121.936;2022-11-30T06:27:10;6.82;;;3.00;;
22332;SDS011;11334;36.986;-121.936;2022-11-30T06:29:36;6.82;;;3.63;;
22332;SDS011;11334;36.986;-121.936;2022-11-30T06:32:05;5.63;;;3.13;;
22332;SDS011;11334;36.986;-121.936;2022-11-30T06:34:31;10.50;;;3.33;;
22332;SDS011;11334;36.986;-121.936;2022-11-30T06:36:58;4.15;;;2.88;;
22332;SDS011;11334;36.986;-121.936;2022-11-30T06:39:24;5.43;;;2.85;;
22332;SDS011;11334;36.986;-121.936;2022-11-30T06:41:50;7.85;;;3.20;;
22332;SDS011;11334;36.986;-121.936;2022-11-30T06:44:16;6.20;;;2.90;;
22332;SDS011;11334;36.986;-121.936;2022-11-30T06:46:42;7.30;;;3.25;;
22332;SDS011;11334;36.986;-121.936;2022-11-30T06:49:09;4.38;;;2.78;;
22332;SDS011;11334;36.986;-121.936;2022-11-30T06:51:36;5.15;;;3.20;;
22332;SDS011;11334;36.986;-121.936;2022-11-30T06:54:04;9.57;;;3.00;;
22332;SDS011;11334;36.986;-121.936;2022-11-30T06:56:31;4.28;;;2.45;;
22332;SDS011;11334;36.986;-121.936;2022-11-30T06:58:57;10.48;;;3.05;;
22332;SDS011;11334;36.986;-121.936;2022-11-30T07:01:23;4.78;;;2.65;;
22332;SDS011;11334;36.986;-121.936;2022-11-30T07:03:49;7.50;;;2.72;;
22332;SDS011;11334;36.986;-121.936;2022-11-30T07:06:15;6.40;;;2.75;;
22332;SDS011;11334;36.986;-121.936;2022-11-30T07:08:42;4.88;;;2.70;;
22332;SDS011;11334;36.986;-121.936;2022-11-30T07:11:10;4.78;;;2.70;;
22332;SDS011;11334;36.986;-121.936;2022-11-30T07:13:36;8.48;;;3.05;;
22332;SDS011;11334;36.986;-121.936;2022-11-30T07:16:03;6.05;;;2.97;;
22332;SDS011;11334;36.986;-121.936;2022-11-30T07:18:31;6.38;;;3.15;;
22332;SDS011;11334;36.986;-121.936;2022-11-30T07:21:01;7.18;;;2.97;;
22332;SDS011;11334;36.986;-121.936;2022-11-30T07:23:29;6.75;;;2.40;;
22332;SDS011;11334;36.986;-121.936;2022-11-30T07:26:14;5.43;;;2.67;;
22332;SDS011;11334;36.986;-121.936;2022-11-30T07:28:41;3.90;;;2.15;;
22332;SDS011;11334;36.986;-121.936;2022-11-30T07:33:46;3.97;;;2.42;;
22332;SDS011;11334;36.986;-121.936;2022-11-30T07:36:14;3.25;;;2.08;;
22332;SDS011;11334;36.986;-121.936;2022-11-30T07:38:41;3.47;;;2.08;;
22332;SDS011;11334;36.986;-121.936;2022-11-30T07:41:08;4.97;;;2.20;;
22332;SDS011;11334;36.986;-121.936;2022-11-30T07:43:34;3.70;;;2.72;;
22332;SDS011;11334;36.986;-121.936;2022-11-30T07:46:01;4.95;;;2.72;;
22332;SDS011;11334;36.986;-121.936;2022-11-30T07:48:28;5.03;;;2.67;;
22332;SDS011;11334;36.986;-121.936;2022-11-30T07:51:00;5.78;;;2.78;;
22332;SDS011;11334;36.986;-121.936;2022-11-30T07:53:28;10.15;;;2.53;;
22332;SDS011;11334;36.986;-121.936;2022-11-30T07:56:05;6.38;;;2.53;;
22332;SDS011;11334;36.986;-121.936;2022-11-30T07:58:33;4.80;;;2.78;;
22332;SDS011;11334;36.986;-121.936;2022-11-30T08:01:00;6.97;;;2.90;;
22332;SDS011;11334;36.986;-121.936;2022-11-30T08:03:31;5.28;;;2.55;;
22332;SDS011;11334;36.986;-121.936;2022-11-30T08:05:59;9.52;;;3.47;;
22332;SDS011;11334;36.986;-121.936;2022-11-30T08:08:30;7.07;;;3.60;;
22332;SDS011;11334;36.986;-121.936;2022-11-30T08:10:57;6.63;;;2.90;;
22332;SDS011;11334;36.986;-121.936;2022-11-30T08:13:24;5.97;;;2.95;;
22332;SDS011;11334;36.986;-121.936;2022-11-30T08:15:51;4.30;;;2.78;;
22332;SDS011;11334;36.986;-121.936;2022-11-30T08:18:17;4.32;;;3.10;;
22332;SDS011;11334;36.986;-121.936;2022-11-30T08:20:44;8.60;;;2.90;;
22332;SDS011;11334;36.986;-121.936;2022-11-30T08:23:10;6.25;;;3.05;;
22332;SDS011;11334;36.986;-121.936;2022-11-30T08:25:37;5.32;;;3.03;;
22332;SDS011;11334;36.986;-121.936;2022-11-30T08:28:03;4.28;;;3.00;;
22332;SDS011;11334;36.986;-121.936;2022-11-30T08:30:30;5.18;;;2.97;;
22332;SDS011;11334;36.986;-121.936;2022-11-30T08:32:56;3.97;;;2.85;;
22332;SDS011;11334;36.986;-121.936;2022-11-30T08:35:22;4.05;;;2.38;;
22332;SDS011;11334;36.986;-121.936;2022-11-30T08:37:48;4.43;;;2.45;;
22332;SDS011;11334;36.986;-121.936;2022-11-30T08:40:15;3.50;;;2.42;;
22332;SDS011;11334;36.986;-121.936;2022-11-30T08:42:41;6.57;;;3.08;;
22332;SDS011;11334;36.986;-121.936;2022-11-30T08:45:07;5.45;;;2.30;;
22332;SDS011;11334;36.986;-121.936;2022-11-30T08:47:33;5.70;;;2.42;;
22332;SDS011;11334;36.986;-121.936;2022-11-30T08:50:00;5.22;;;2.78;;
22332;SDS011;11334;36.986;-121.936;2022-11-30T08:52:26;8.90;;;2.30;;
22332;SDS011;11334;36.986;-121.936;2022-11-30T08:54:52;5.15;;;2.38;;
22332;SDS011;11334;36.986;-121.936;2022-11-30T08:57:19;4.63;;;2.63;;
22332;SDS011;11334;36.986;-121.936;2022-11-30T08:59:46;4.03;;;2.03;;
22332;SDS011;11334;36.986;-121.936;2022-11-30T09:02:13;2.88;;;2.17;;
22332;SDS011;11334;36.986;-121.936;2022-11-30T09:04:44;4.53;;;1.90;;
22332;SDS011;11334;36.986;-121.936;2022-11-30T09:07:12;3.10;;;1.90;;
22332;SDS011;11334;36.986;-121.936;2022-11-30T09:09:39;5.18;;;2.03;;
22332;SDS011;11334;36.986;-121.936;2022-11-30T09:12:05;5.90;;;2.00;;
22332;SDS011;11334;36.986;-121.936;2022-11-30T09:14:32;5.50;;;1.85;;
22332;SDS011;11334;36.986;-121.936;2022-11-30T09:16:58;5.50;;;2.20;;
22332;SDS011;11334;36.986;-121.936;2022-11-30T09:19:25;3.35;;;1.95;;
22332;SDS011;11334;36.986;-121.936;2022-11-30T09:21:51;2.95;;;1.90;;
22332;SDS011;11334;36.986;-121.936;2022-11-30T09:24:17;5.40;;;1.92;;
22332;SDS011;11334;36.986;-121.936;2022-11-30T09:26:44;2.78;;;1.67;;
22332;SDS011;11334;36.986;-121.936;2022-11-30T09:29:10;4.55;;;2.22;;
22332;SDS011;11334;36.986;-121.936;2022-11-30T09:31:37;3.58;;;1.70;;
22332;SDS011;11334;36.986;-121.936;2022-11-30T09:34:03;4.88;;;1.77;;
22332;SDS011;11334;36.986;-121.936;2022-11-30T09:36:29;4.65;;;1.92;;
22332;SDS011;11334;36.986;-121.936;2022-11-30T09:38:57;3.90;;;1.83;;
22332;SDS011;11334;36.986;-121.936;2022-11-30T09:46:55;3.03;;;1.52;;
22332;SDS011;11334;36.986;-121.936;2022-11-30T09:49:42;1.98;;;1.48;;
22332;SDS011;11334;36.986;-121.936;2022-11-30T09:55:04;2.53;;;1.80;;
22332;SDS011;11334;36.986;-121.936;2022-11-30T09:57:53;4.35;;;2.15;;
22332;SDS011;11334;36.986;-121.936;2022-11-30T10:00:23;3.00;;;1.67;;
22332;SDS011;11334;36.986;-121.936;2022-11-30T10:02:51;2.80;;;1.48;;
22332;SDS011;11334;36.986;-121.936;2022-11-30T10:13:57;5.82;;;2.00;;
22332;SDS011;11334;36.986;-121.936;2022-11-30T10:22:18;2.88;;;1.02;;
22332;SDS011;11334;36.986;-121.936;2022-11-30T10:27:35;4.18;;;1.58;;
22332;SDS011;11334;36.986;-121.936;2022-11-30T10:30:12;3.05;;;1.67;;
22332;SDS011;11334;36.986;-121.936;2022-11-30T10:32:42;2.42;;;1.90;;
22332;SDS011;11334;36.986;-121.936;2022-11-30T10:37:48;3.25;;;1.73;;
22332;SDS011;11334;36.986;-121.936;2022-11-30T10:43:14;2.65;;;1.63;;
22332;SDS011;11334;36.986;-121.936;2022-11-30T10:45:47;5.00;;;1.60;;
22332;SDS011;11334;36.986;-121.936;2022-11-30T10:48:16;5.38;;;1.85;;
22332;SDS011;11334;36.986;-121.936;2022-11-30T10:51:03;4.05;;;1.35;;
22332;SDS011;11334;36.986;-121.936;2022-11-30T10:53:31;2.40;;;1.42;;
22332;SDS011;11334;36.986;-121.936;2022-11-30T10:58:38;3.50;;;1.58;;
22332;SDS011;11334;36.986;-121.936;2022-11-30T11:06:46;2.53;;;1.17;;
22332;SDS011;11334;36.986;-121.936;2022-11-30T11:12:23;4.82;;;1.50;;
22332;SDS011;11334;36.986;-121.936;2022-11-30T11:17:56;2.10;;;1.13;;
22332;SDS011;11334;36.986;-121.936;2022-11-30T11:20:44;5.03;;;1.50;;
22332;SDS011;11334;36.986;-121.936;2022-11-30T11:23:26;4.88;;;1.65;;
22332;SDS011;11334;36.986;-121.936;2022-11-30T11:26:06;3.65;;;1.70;;
22332;SDS011;11334;36.986;-121.936;2022-11-30T11:29:02;3.97;;;1.30;;
22332;SDS011;11334;36.986;-121.936;2022-11-30T11:34:22;3.67;;;1.95;;
22332;SDS011;11334;36.986;-121.936;2022-11-30T11:37:13;2.90;;;1.80;;
22332;SDS011;11334;36.986;-121.936;2022-11-30T11:39:41;6.93;;;1.30;;
22332;SDS011;11334;36.986;-121.936;2022-11-30T11:42:14;2.63;;;1.50;;
22332;SDS011;11334;36.986;-121.936;2022-11-30T11:44:44;3.95;;;1.40;;
22332;SDS011;11334;36.986;-121.936;2022-11-30T11:47:23;2.63;;;1.50;;
22332;SDS011;11334;36.986;-121.936;2022-11-30T11:50:24;2.28;;;1.30;;
22332;SDS011;11334;36.986;-121.936;2022-11-30T11:53:15;3.35;;;1.30;;
22332;SDS011;11334;36.986;-121.936;2022-11-30T11:55:54;1.40;;;1.05;;
22332;SDS011;11334;36.986;-121.936;2022-11-30T11:58:37;3.75;;;1.30;;
22332;SDS011;11334;36.986;-121.936;2022-11-30T12:01:29;7.75;;;1.70;;
22332;SDS011;11334;36.986;-121.936;2022-11-30T12:04:29;2.80;;;1.17;;
22332;SDS011;11334;36.986;-121.936;2022-11-30T12:06:54;3.63;;;1.60;;
22332;SDS011;11334;36.986;-121.936;2022-11-30T12:09:26;4.65;;;1.30;;
22332;SDS011;11334;36.986;-121.936;2022-11-30T12:11:56;4.43;;;1.02;;
22332;SDS011;11334;36.986;-121.936;2022-11-30T12:14:23;5.45;;;1.20;;
22332;SDS011;11334;36.986;-121.936;2022-11-30T12:16:55;2.00;;;1.00;;
22332;SDS011;11334;36.986;-121.936;2022-11-30T12:19:32;2.88;;;1.13;;
22332;SDS011;11334;36.986;-121.936;2022-11-30T12:25:22;5.55;;;2.08;;
22332;SDS011;11334;36.986;-121.936;2022-11-30T12:31:16;3.47;;;1.15;;
22332;SDS011;11334;36.986;-121.936;2022-11-30T12:36:25;2.45;;;1.10;;
22332;SDS011;11334;36.986;-121.936;2022-11-30T12:42:10;2.15;;;1.58;;
22332;SDS011;11334;36.986;-121.936;2022-11-30T12:44:48;1.75;;;1.13;;
22332;SDS011;11334;36.986;-121.936;2022-11-30T12:55:31;2.42;;;1.30;;
22332;SDS011;11334;36.986;-121.936;2022-11-30T13:07:04;1.58;;;1.20;;
22332;SDS011;11334;36.986;-121.936;2022-11-30T13:09:39;2.25;;;1.17;;
22332;SDS011;11334;36.986;-121.936;2022-11-30T13:12:20;3.15;;;1.25;;
22332;SDS011;11334;36.986;-121.936;2022-11-30T13:15:04;1.80;;;1.30;;
22332;SDS011;11334;36.986;-121.936;2022-11-30T13:17:37;2.35;;;1.17;;
22332;SDS011;11334;36.986;-121.936;2022-11-30T13:20:19;4.72;;;1.20;;
22332;SDS011;11334;36.986;-121.936;2022-11-30T13:22:55;3.50;;;1.48;;
22332;SDS011;11334;36.986;-121.936;2022-11-30T13:31:01;3.78;;;1.95;;
22332;SDS011;11334;36.986;-121.936;2022-11-30T13:33:48;3.45;;;1.60;;
22332;SDS011;11334;36.986;-121.936;2022-11-30T13:36:30;3.70;;;1.80;;
22332;SDS011;11334;36.986;-121.936;2022-11-30T13:41:45;4.00;;;1.73;;
22332;SDS011;11334;36.986;-121.936;2022-11-30T13:44:30;4.22;;;1.75;;
22332;SDS011;11334;36.986;-121.936;2022-11-30T13:47:49;3.60;;;1.23;;
22332;SDS011;11334;36.986;-121.936;2022-11-30T13:49:59;3.63;;;1.60;;
22332;SDS011;11334;36.986;-121.936;2022-11-30T13:58:02;3.80;;;1.55;;
22332;SDS011;11334;36.986;-121.936;2022-11-30T14:00:42;1.95;;;1.02;;
22332;SDS011;11334;36.986;-121.936;2022-11-30T14:03:43;7.82;;;1.48;;
22332;SDS011;11334;36.986;-121.936;2022-11-30T14:09:15;2.88;;;1.23;;
22332;SDS011;11334;36.986;-121.936;2022-11-30T14:20:44;2.42;;;1.30;;
22332;SDS011;11334;36.986;-121.936;2022-11-30T14:26:08;2.97;;;1.50;;
22332;SDS011;11334;36.986;-121.936;2022-11-30T14:28:38;1.17;;;0.98;;
22332;SDS011;11334;36.986;-121.936;2022-11-30T14:31:18;3.15;;;1.60;;
22332;SDS011;11334;36.986;-121.936;2022-11-30T14:36:23;1.60;;;1.35;;
22332;SDS011;11334;36.986;-121.936;2022-11-30T14:38:57;1.92;;;1.30;;
22332;SDS011;11334;36.986;-121.936;2022-11-30T14:41:25;1.90;;;1.50;;
22332;SDS011;11334;36.986;-121.936;2022-11-30T14:44:16;2.78;;;1.50;;
22332;SDS011;11334;36.986;-121.936;2022-11-30T14:46:41;1.85;;;1.10;;
22332;SDS011;11334;36.986;-121.936;2022-11-30T14:49:17;3.05;;;1.35;;
22332;SDS011;11334;36.986;-121.936;2022-11-30T14:52:06;2.60;;;1.20;;
22332;SDS011;11334;36.986;-121.936;2022-11-30T14:58:11;2.33;;;1.80;;
22332;SDS011;11334;36.986;-121.936;2022-11-30T15:00:44;2.92;;;1.60;;
22332;SDS011;11334;36.986;-121.936;2022-11-30T15:03:25;4.15;;;2.08;;
22332;SDS011;11334;36.986;-121.936;2022-11-30T15:05:57;2.08;;;1.60;;
22332;SDS011;11334;36.986;-121.936;2022-11-30T15:08:27;4.32;;;1.42;;
22332;SDS011;11334;36.986;-121.936;2022-11-30T15:11:04;4.00;;;1.70;;
22332;SDS011;11334;36.986;-121.936;2022-11-30T15:13:33;4.70;;;1.73;;
22332;SDS011;11334;36.986;-121.936;2022-11-30T15:16:10;1.83;;;1.50;;
22332;SDS011;11334;36.986;-121.936;2022-11-30T15:18:51;2.58;;;1.80;;
22332;SDS011;11334;36.986;-121.936;2022-11-30T15:21:26;2.33;;;1.77;;
22332;SDS011;11334;36.986;-121.936;2022-11-30T15:23:54;3.95;;;1.60;;
22332;SDS011;11334;36.986;-121.936;2022-11-30T15:26:29;2.65;;;1.70;;
22332;SDS011;11334;36.986;-121.936;2022-11-30T15:31:44;5.40;;;1.90;;
22332;SDS011;11334;36.986;-121.936;2022-11-30T15:34:15;2.15;;;1.85;;
22332;SDS011;11334;36.986;-121.936;2022-11-30T15:36:45;2.85;;;1.42;;
22332;SDS011;11334;36.986;-121.936;2022-11-30T15:39:17;3.55;;;1.70;;
22332;SDS011;11334;36.986;-121.936;2022-11-30T15:41:45;3.72;;;1.90;;
22332;SDS011;11334;36.986;-121.936;2022-11-30T15:44:25;2.70;;;1.40;;
22332;SDS011;11334;36.986;-121.936;2022-11-30T15:46:58;3.25;;;1.75;;
22332;SDS011;11334;36.986;-121.936;2022-11-30T15:49:30;3.47;;;1.50;;
22332;SDS011;11334;36.986;-121.936;2022-11-30T15:52:19;2.85;;;1.40;;
22332;SDS011;11334;36.986;-121.936;2022-11-30T15:54:54;4.30;;;1.55;;
22332;SDS011;11334;36.986;-121.936;2022-11-30T16:00:26;2.13;;;1.65;;
22332;SDS011;11334;36.986;-121.936;2022-11-30T16:03:12;2.78;;;1.67;;
22332;SDS011;11334;36.986;-121.936;2022-11-30T16:05:38;5.25;;;1.60;;
22332;SDS011;11334;36.986;-121.936;2022-11-30T16:08:12;4.90;;;1.85;;
22332;SDS011;11334;36.986;-121.936;2022-11-30T16:10:40;2.53;;;1.73;;
22332;SDS011;11334;36.986;-121.936;2022-11-30T16:13:14;4.85;;;1.25;;
22332;SDS011;11334;36.986;-121.936;2022-11-30T16:15:45;4.65;;;1.90;;
22332;SDS011;11334;36.986;-121.936;2022-11-30T16:20:50;3.75;;;1.77;;
22332;SDS011;11334;36.986;-121.936;2022-11-30T16:23:24;1.87;;;1.53;;
22332;SDS011;11334;36.986;-121.936;2022-11-30T16:25:51;2.72;;;1.98;;
22332;SDS011;11334;36.986;-121.936;2022-11-30T16:28:18;3.08;;;2.75;;
22332;SDS011;11334;36.986;-121.936;2022-11-30T16:30:46;2.10;;;1.52;;
22332;SDS011;11334;36.986;-121.936;2022-11-30T16:33:13;1.80;;;1.45;;
22332;SDS011;11334;36.986;-121.936;2022-11-30T16:36:05;6.40;;;1.98;;
22332;SDS011;11334;36.986;-121.936;2022-11-30T16:38:28;3.03;;;1.80;;
22332;SDS011;11334;36.986;-121.936;2022-11-30T16:40:55;5.25;;;2.08;;
22332;SDS011;11334;36.986;-121.936;2022-11-30T16:43:43;7.55;;;2.35;;
22332;SDS011;11334;36.986;-121.936;2022-11-30T16:46:11;8.27;;;2.10;;
22332;SDS011;11334;36.986;-121.936;2022-11-30T16:48:39;4.18;;;1.73;;
22332;SDS011;11334;36.986;-121.936;2022-11-30T16:51:11;12.65;;;2.55;;